Time;durP1;ratioP1;P1;durP2;ratioP2;P2;SDS_P1;SDS_P2;PMS_P1;PMS_P2;Temp;Humidity;BMP_temperature;BMP_pressure;BME280_temperature;BME280_humidity;BME280_pressure;Samples;Min_cycle;Max_cycle;Signal;HPM_P1;HPM_P2
2023/05/12 03:58:51;;;;;;;23.92;12.68;;;9.90;99.90;;;;;;6350163;22;20035;-95
2023/05/12 06:06:01;;;;;;;16.95;9.15;;;10.40;99.90;;;;;;6317533;22;20061;-96
2023/05/12 09:02:21;;;;;;;6.97;4.25;;;13.30;99.90;;;;;;6297168;22;20048;-94
2023/05/12 09:17:45;;;;;;;8.45;4.28;;;13.40;99.90;;;;;;6323343;22;20027;-95
2023/05/12 09:20:17;;;;;;;9.07;3.90;;;13.40;99.90;;;;;;6339161;22;20076;-96
2023/05/12 09:22:48;;;;;;;7.28;3.67;;;13.60;99.90;;;;;;6283855;22;20115;-95
2023/05/12 09:27:48;;;;;;;6.95;3.90;;;13.90;99.90;;;;;;6358181;22;20019;-95
2023/05/12 09:30:15;;;;;;;10.18;3.38;;;14.10;99.90;;;;;;6332972;22;20006;-96
2023/05/12 09:32:41;;;;;;;6.32;3.72;;;14.20;99.90;;;;;;6333263;22;20020;-96
2023/05/12 09:35:10;;;;;;;9.60;3.88;;;14.20;99.90;;;;;;6325348;22;20011;-96
2023/05/12 09:37:36;;;;;;;6.60;3.05;;;14.20;99.90;;;;;;6331400;22;20003;-96
2023/05/12 09:40:06;;;;;;;9.98;3.92;;;14.10;99.90;;;;;;6323445;22;20065;-96
2023/05/12 09:42:34;;;;;;;7.05;4.22;;;14.20;99.90;;;;;;6320571;22;20448;-95
2023/05/12 09:45:10;;;;;;;5.35;3.28;;;14.20;99.90;;;;;;6334374;22;19998;-96
2023/05/12 09:47:40;;;;;;;6.30;3.72;;;14.30;99.90;;;;;;6334874;22;20007;-96
2023/05/12 09:50:07;;;;;;;5.25;3.83;;;14.50;99.90;;;;;;6334328;22;20000;-96
2023/05/12 09:52:47;;;;;;;7.82;3.75;;;14.60;99.90;;;;;;6332960;22;20014;-96
2023/05/12 09:55:13;;;;;;;5.85;3.50;;;14.60;99.90;;;;;;6331849;22;20018;-96
2023/05/12 09:57:44;;;;;;;7.07;3.38;;;14.60;99.90;;;;;;6329159;22;19999;-96
2023/05/12 10:00:20;;;;;;;6.40;3.53;;;14.70;99.90;;;;;;6303890;22;20030;-95
2023/05/12 10:02:52;;;;;;;6.88;4.50;;;14.60;99.90;;;;;;6326048;22;20007;-96
2023/05/12 10:05:23;;;;;;;6.45;3.88;;;14.70;99.90;;;;;;6329456;22;19987;-96
2023/05/12 10:07:59;;;;;;;5.25;4.03;;;14.60;99.90;;;;;;6295574;22;20007;-96
2023/05/12 10:10:29;;;;;;;5.63;4.10;;;14.60;99.90;;;;;;6299506;22;20038;-96
2023/05/12 10:12:57;;;;;;;8.87;4.90;;;14.50;99.90;;;;;;6298435;22;20006;-96
2023/05/12 10:15:27;;;;;;;5.78;4.13;;;14.40;99.90;;;;;;6298352;22;20004;-96
2023/05/12 10:17:56;;;;;;;8.82;4.68;;;14.30;99.90;;;;;;6298445;22;19996;-96
2023/05/12 10:20:25;;;;;;;7.18;4.40;;;14.20;99.90;;;;;;6325309;22;20026;-96
2023/05/12 10:23:00;;;;;;;6.40;4.45;;;14.20;99.90;;;;;;6328279;22;20055;-96
2023/05/12 10:25:28;;;;;;;7.78;4.10;;;14.20;99.90;;;;;;6296254;22;20000;-95
2023/05/12 10:27:55;;;;;;;5.72;4.40;;;14.20;99.90;;;;;;6321369;22;20003;-96
2023/05/12 10:30:39;;;;;;;6.38;4.47;;;14.20;99.90;;;;;;6325124;22;20000;-96
2023/05/12 10:33:10;;;;;;;7.90;4.35;;;14.20;99.90;;;;;;6324246;22;20004;-96
2023/05/12 10:35:39;;;;;;;7.15;5.15;;;14.30;99.90;;;;;;6294164;22;20015;-96
2023/05/12 10:38:13;;;;;;;6.65;4.70;;;14.20;99.90;;;;;;6322678;22;20015;-96
2023/05/12 10:41:02;;;;;;;8.88;5.32;;;14.40;99.90;;;;;;6300341;22;20012;-96
2023/05/12 10:44:22;;;;;;;6.72;4.28;;;14.40;99.90;;;;;;6325450;22;20461;-96
2023/05/12 10:47:25;;;;;;;7.97;4.68;;;14.40;99.90;;;;;;6304454;22;19988;-96
2023/05/12 10:53:00;;;;;;;10.45;4.57;;;14.40;99.90;;;;;;6365878;22;20022;-96
2023/05/12 10:55:46;;;;;;;6.50;4.05;;;14.40;99.90;;;;;;6334622;22;20066;-95
2023/05/12 10:58:17;;;;;;;7.32;4.45;;;14.30;99.90;;;;;;6345348;22;20009;-96
2023/05/12 11:00:50;;;;;;;7.13;4.20;;;14.20;99.90;;;;;;6336747;22;20015;-96
2023/05/12 11:03:43;;;;;;;6.88;4.32;;;14.20;99.90;;;;;;6340957;22;19991;-96
2023/05/12 11:09:47;;;;;;;7.05;3.72;;;14.20;99.90;;;;;;6333805;22;20087;-96
2023/05/12 11:14:49;;;;;;;6.38;3.50;;;14.20;99.90;;;;;;6365083;22;20026;-95
2023/05/12 11:17:15;;;;;;;5.15;3.78;;;14.10;99.90;;;;;;6341330;22;20007;-96
2023/05/12 11:19:45;;;;;;;5.22;3.72;;;14.10;99.90;;;;;;6340318;22;20026;-96
2023/05/12 11:22:11;;;;;;;;;;;14.00;99.90;;;;;;6341049;22;19982;-96
2023/05/12 11:24:41;;;;;;;5.55;3.35;;;14.00;99.90;;;;;;6340847;22;19907;-96
2023/05/12 11:27:21;;;;;;;7.70;3.50;;;14.10;99.90;;;;;;6340362;22;20044;-95
2023/05/12 11:30:01;;;;;;;8.40;4.00;;;14.10;99.90;;;;;;6340908;22;20006;-95
2023/05/12 11:32:31;;;;;;;4.82;3.90;;;14.10;99.90;;;;;;6339763;22;19995;-96
2023/05/12 11:35:09;;;;;;;7.35;4.55;;;14.10;99.90;;;;;;6339426;22;20018;-96
2023/05/12 11:37:39;;;;;;;9.80;4.93;;;14.10;99.90;;;;;;6333920;22;20044;-95
2023/05/12 11:40:19;;;;;;;5.07;4.28;;;14.10;99.90;;;;;;6340279;22;20033;-96
2023/05/12 11:42:50;;;;;;;6.85;4.72;;;14.10;99.90;;;;;;6368473;22;20010;-95
2023/05/12 11:59:36;;;;;;;7.05;4.25;;;13.80;99.90;;;;;;6347416;22;20045;-94
2023/05/12 12:02:03;;;;;;;6.95;4.50;;;13.80;99.90;;;;;;6339880;22;19998;-96
2023/05/12 12:04:36;;;;;;;6.32;4.90;;;13.70;99.90;;;;;;6360131;22;19996;-95
2023/05/12 12:12:12;;;;;;;5.38;4.32;;;13.60;99.90;;;;;;6335685;22;20023;-95
2023/05/12 12:14:41;;;;;;;6.72;4.55;;;13.60;99.90;;;;;;6338190;22;20045;-95
2023/05/12 12:17:07;;;;;;;7.28;4.90;;;13.60;99.90;;;;;;6338816;22;20003;-96
2023/05/12 12:19:33;;;;;;;6.90;5.10;;;13.60;99.90;;;;;;6337499;22;20011;-95
2023/05/12 12:22:02;;;;;;;5.50;4.50;;;13.60;99.90;;;;;;6336945;22;20010;-96
2023/05/12 12:24:28;;;;;;;10.10;5.05;;;13.60;99.90;;;;;;6337617;22;20007;-95
2023/05/12 12:26:53;;;;;;;8.07;4.55;;;13.60;99.90;;;;;;6329377;22;20011;-96
2023/05/12 12:29:22;;;;;;;8.15;4.80;;;13.50;99.90;;;;;;6337056;22;19998;-96
2023/05/12 12:31:53;;;;;;;6.75;4.55;;;13.40;99.90;;;;;;6339186;22;20052;-95
2023/05/12 12:34:19;;;;;;;9.55;4.65;;;13.40;99.90;;;;;;6365719;22;19995;-96
2023/05/12 12:36:47;;;;;;;7.07;4.93;;;13.40;99.90;;;;;;6338004;22;20003;-96
2023/05/12 12:39:13;;;;;;;5.90;4.70;;;13.40;99.90;;;;;;6337871;22;19991;-96
2023/05/12 12:41:39;;;;;;;6.78;4.63;;;13.40;99.90;;;;;;6365421;22;20003;-95
2023/05/12 12:44:05;;;;;;;10.30;4.45;;;13.40;99.90;;;;;;6337240;22;19987;-96
2023/05/12 12:51:55;;;;;;;5.68;3.88;;;13.50;99.90;;;;;;6337520;22;20053;-95
2023/05/12 12:54:25;;;;;;;7.18;4.72;;;13.60;99.90;;;;;;6337908;22;20062;-95
2023/05/12 12:56:51;;;;;;;5.25;3.90;;;13.60;99.90;;;;;;6338968;22;19990;-96
2023/05/12 12:59:20;;;;;;;6.85;4.25;;;13.60;99.90;;;;;;6337301;22;20054;-95
2023/05/12 13:01:53;;;;;;;6.68;4.80;;;13.60;99.90;;;;;;6335855;22;20022;-94
2023/05/12 13:04:21;;;;;;;4.78;4.25;;;13.60;99.90;;;;;;6342573;22;19996;-94
2023/05/12 13:12:04;;;;;;;6.05;3.90;;;13.50;99.90;;;;;;6359407;22;20021;-95
2023/05/12 13:14:36;;;;;;;6.10;5.07;;;13.50;99.90;;;;;;6336535;22;19991;-96
2023/05/12 13:17:02;;;;;;;7.72;5.03;;;13.50;99.90;;;;;;6336233;22;20142;-95
2023/05/12 13:19:28;;;;;;;7.20;5.20;;;13.50;99.90;;;;;;6333002;22;20010;-96
2023/05/12 13:21:56;;;;;;;8.63;5.65;;;13.40;99.90;;;;;;6331249;22;19999;-96
2023/05/12 13:24:22;;;;;;;8.82;5.35;;;13.40;99.90;;;;;;6315041;22;21036;-95
2023/05/12 13:26:47;;;;;;;9.38;5.90;;;13.30;99.90;;;;;;6370105;22;20010;-95
2023/05/12 13:32:18;;;;;;;10.13;5.47;;;13.20;99.90;;;;;;6334367;22;20014;-96
2023/05/12 13:37:20;;;;;;;9.25;6.43;;;13.20;99.90;;;;;;6329746;22;20011;-96
2023/05/12 13:39:46;;;;;;;8.45;5.75;;;13.10;99.90;;;;;;6332941;22;20035;-96
2023/05/12 13:42:14;;;;;;;7.80;6.00;;;13.20;99.90;;;;;;6328166;22;20025;-95
2023/05/12 13:44:42;;;;;;;6.82;5.63;;;13.20;99.90;;;;;;6332523;22;19999;-96
2023/05/12 13:47:10;;;;;;;7.18;5.82;;;13.10;99.90;;;;;;6333896;22;19987;-95
2023/05/12 13:49:38;;;;;;;11.18;6.55;;;13.20;99.90;;;;;;6332623;22;20011;-95
2023/05/12 13:52:04;;;;;;;10.40;6.00;;;13.10;99.90;;;;;;6333157;22;20055;-96
2023/05/12 13:54:31;;;;;;;9.95;6.45;;;13.10;99.90;;;;;;6332795;22;20034;-95
2023/05/12 13:56:58;;;;;;;7.70;5.80;;;13.10;99.90;;;;;;6335696;22;20055;-95
2023/05/12 13:59:24;;;;;;;8.63;6.10;;;13.20;99.90;;;;;;6333957;22;20012;-95
2023/05/12 14:07:17;;;;;;;9.73;6.88;;;13.60;99.90;;;;;;6359598;22;20100;-96
2023/05/12 14:09:43;;;;;;;12.70;8.18;;;13.60;99.90;;;;;;6303067;22;20032;-96
2023/05/12 14:12:13;;;;;;;12.77;8.30;;;13.70;99.90;;;;;;6333490;22;20003;-96
2023/05/12 14:14:39;;;;;;;;;;;13.60;99.90;;;;;;6335324;22;19999;-95
2023/05/12 14:17:13;;;;;;;10.45;6.82;;;13.50;99.90;;;;;;6338338;22;19902;-96
2023/05/12 14:42:28;;;;;;;8.95;6.78;;;14.30;99.90;;;;;;6325323;22;20015;-94
2023/05/12 14:44:57;;;;;;;10.05;7.35;;;14.30;99.90;;;;;;6322882;22;20087;-95
2023/05/12 14:47:23;;;;;;;9.55;7.45;;;14.20;99.90;;;;;;6361967;22;20009;-96
2023/05/12 14:49:54;;;;;;;13.55;6.95;;;14.10;99.90;;;;;;6364104;22;20369;-96
2023/05/12 14:52:22;;;;;;;10.70;6.60;;;14.10;99.90;;;;;;6324434;22;20013;-96
2023/05/12 14:54:54;;;;;;;9.13;6.20;;;14.00;99.90;;;;;;6366195;22;19987;-95
2023/05/12 15:17:47;;;;;;;9.38;6.65;;;13.90;99.90;;;;;;6360382;22;20089;-95
2023/05/12 15:20:15;;;;;;;8.77;7.45;;;13.90;99.90;;;;;;6333811;22;20002;-95
2023/05/12 15:22:46;;;;;;;11.10;7.18;;;13.80;99.90;;;;;;6333095;22;20029;-96
2023/05/12 15:25:15;;;;;;;10.85;8.25;;;13.70;99.90;;;;;;6333731;22;20453;-96
2023/05/12 15:27:41;;;;;;;11.40;8.57;;;13.60;99.90;;;;;;6332402;22;19999;-95
2023/05/12 15:30:07;;;;;;;12.05;7.40;;;13.40;99.90;;;;;;6363470;22;20005;-96
2023/05/12 15:32:34;;;;;;;12.02;7.43;;;13.40;99.90;;;;;;6366013;22;19983;-96
2023/05/12 15:35:02;;;;;;;9.80;6.80;;;13.30;99.90;;;;;;6339027;22;20050;-96
2023/05/12 15:37:28;;;;;;;8.07;6.25;;;13.30;99.90;;;;;;6340269;22;20009;-96
2023/05/12 15:40:06;;;;;;;8.88;5.85;;;13.40;99.90;;;;;;6339074;22;20019;-95
2023/05/12 15:42:31;;;;;;;8.02;5.90;;;13.40;99.90;;;;;;6337542;22;20005;-96
2023/05/12 15:45:15;;;;;;;8.77;5.88;;;13.40;99.90;;;;;;6340703;22;20001;-96
2023/05/12 15:47:41;;;;;;;10.50;5.45;;;13.40;99.90;;;;;;6340324;22;19998;-96
2023/05/12 15:50:09;;;;;;;8.23;5.47;;;13.40;99.90;;;;;;6340071;22;20011;-96
2023/05/12 15:52:34;;;;;;;8.27;5.70;;;13.40;99.90;;;;;;6341338;22;19995;-96
2023/05/12 16:00:11;;;;;;;7.28;4.90;;;13.60;99.90;;;;;;6392520;22;20019;-96
2023/05/12 16:02:37;;;;;;;8.13;5.45;;;13.60;99.90;;;;;;6397222;22;20006;-95
2023/05/12 16:05:03;;;;;;;6.85;5.25;;;13.60;99.90;;;;;;6369812;22;20041;-95
2023/05/12 16:10:21;;;;;;;9.38;5.55;;;13.60;99.90;;;;;;6398877;22;20049;-95
2023/05/12 16:12:47;;;;;;;10.05;5.93;;;13.60;99.90;;;;;;6372350;22;20014;-96
2023/05/12 16:15:13;;;;;;;6.88;5.65;;;13.60;99.90;;;;;;6372823;22;19990;-96
2023/05/12 16:17:41;;;;;;;9.15;6.00;;;13.60;99.90;;;;;;6352800;22;20024;-96
2023/05/12 16:20:29;;;;;;;9.68;6.28;;;13.60;99.90;;;;;;6397973;22;20018;-96
2023/05/12 16:23:21;;;;;;;8.85;5.70;;;13.40;99.90;;;;;;6372387;22;20002;-96
2023/05/12 16:28:24;;;;;;;7.18;5.78;;;13.30;99.90;;;;;;6388747;22;20442;-95
2023/05/12 16:30:50;;;;;;;10.02;5.53;;;13.20;99.90;;;;;;6392687;22;20013;-96
2023/05/12 16:39:12;;;;;;;7.47;5.13;;;13.00;99.90;;;;;;6353659;22;20119;-96
2023/05/12 16:41:41;;;;;;;9.75;5.95;;;12.90;99.90;;;;;;6331832;22;20002;-96
2023/05/12 16:44:06;;;;;;;12.35;6.45;;;12.80;99.90;;;;;;6335338;22;19983;-96
2023/05/12 16:46:32;;;;;;;11.45;6.80;;;12.70;99.90;;;;;;6332861;22;20025;-96
2023/05/12 16:48:58;;;;;;;10.70;6.90;;;12.60;99.90;;;;;;6333106;22;20002;-96
2023/05/12 16:51:29;;;;;;;10.65;6.50;;;12.50;99.90;;;;;;6363514;22;19987;-96
2023/05/12 17:18:40;;;;;;;11.35;6.78;;;12.20;99.90;;;;;;6358057;22;20049;-96
2023/05/12 17:21:12;;;;;;;10.98;7.75;;;12.20;99.90;;;;;;6360726;22;20007;-94
2023/05/12 17:23:39;;;;;;;11.57;6.95;;;12.10;99.90;;;;;;6334229;22;20014;-95
2023/05/12 17:26:05;;;;;;;11.00;7.25;;;12.10;99.90;;;;;;6338921;22;20022;-96
2023/05/12 17:28:31;;;;;;;9.55;6.30;;;12.10;99.90;;;;;;6336342;22;20007;-95
2023/05/12 17:30:57;;;;;;;13.35;7.78;;;12.10;99.90;;;;;;6334240;22;19990;-96
2023/05/12 17:33:23;;;;;;;12.95;7.22;;;12.10;99.90;;;;;;6334042;22;19987;-95
2023/05/12 17:35:49;;;;;;;13.20;7.50;;;12.10;99.90;;;;;;6315349;22;20003;-96
2023/05/12 17:38:15;;;;;;;12.63;7.47;;;12.10;99.90;;;;;;6335483;22;20014;-96
2023/05/12 17:40:46;;;;;;;10.35;6.85;;;12.00;99.90;;;;;;6314376;22;19999;-96
2023/05/12 17:43:14;;;;;;;12.50;7.30;;;11.90;99.90;;;;;;6329266;22;20026;-90
2023/05/12 17:45:47;;;;;;;13.00;7.70;;;11.80;99.90;;;;;;6395768;22;20029;-96
2023/05/12 17:48:14;;;;;;;14.02;8.52;;;11.80;99.90;;;;;;6341899;22;20006;-95
2023/05/12 17:50:57;;;;;;;11.68;7.60;;;11.80;99.90;;;;;;6364038;22;20016;-94
2023/05/12 17:53:23;;;;;;;15.95;8.50;;;11.80;99.90;;;;;;6366868;22;19989;-96
2023/05/12 17:58:28;;;;;;;12.73;7.80;;;11.60;99.90;;;;;;6362717;22;20015;-95
2023/05/12 18:00:54;;;;;;;15.10;7.93;;;11.50;99.90;;;;;;6306954;22;20030;-96
2023/05/12 18:03:22;;;;;;;12.52;7.25;;;11.60;99.90;;;;;;6306474;22;19991;-96
2023/05/12 18:05:52;;;;;;;13.80;7.35;;;11.50;99.90;;;;;;6308348;22;20066;-96
2023/05/12 18:10:53;;;;;;;10.23;6.88;;;11.40;99.90;;;;;;6303417;22;20015;-96
2023/05/12 18:13:24;;;;;;;12.82;8.68;;;11.40;99.90;;;;;;6331844;22;20068;-96
2023/05/12 18:18:31;;;;;;;11.65;6.38;;;11.30;99.90;;;;;;6321663;22;20023;-95
2023/05/12 18:20:58;;;;;;;15.93;6.65;;;11.20;99.90;;;;;;6333280;22;20022;-95
2023/05/12 18:23:24;;;;;;;14.90;6.93;;;11.20;99.90;;;;;;6332031;22;20019;-95
2023/05/12 18:25:52;;;;;;;9.82;6.55;;;11.10;99.90;;;;;;6344828;22;20396;-95
2023/05/12 18:28:26;;;;;;;12.40;7.63;;;11.10;99.90;;;;;;6325474;22;20051;-95
2023/05/12 18:30:54;;;;;;;12.32;6.38;;;11.10;99.90;;;;;;6329048;22;19991;-96
2023/05/12 18:33:23;;;;;;;11.90;5.57;;;11.00;99.90;;;;;;6332841;22;19994;-96
2023/05/12 18:35:51;;;;;;;14.43;7.80;;;10.90;99.90;;;;;;6331669;22;20059;-96
2023/05/12 18:38:26;;;;;;;15.55;8.38;;;10.90;99.90;;;;;;6331892;22;20003;-95
2023/05/12 18:40:52;;;;;;;14.43;7.25;;;10.90;99.90;;;;;;6331513;22;20071;-96
2023/05/12 18:43:18;;;;;;;12.82;7.55;;;10.80;99.90;;;;;;6328317;22;20022;-95
2023/05/12 18:45:48;;;;;;;14.05;7.80;;;10.80;99.90;;;;;;6330225;22;19987;-96
2023/05/12 18:48:39;;;;;;;12.73;7.07;;;10.80;99.90;;;;;;6332164;22;20014;-96
2023/05/12 18:51:05;;;;;;;11.95;7.65;;;10.70;99.90;;;;;;6284086;22;20018;-95
2023/05/12 18:53:32;;;;;;;11.80;8.02;;;10.70;99.90;;;;;;6305577;22;19987;-96
2023/05/12 19:12:38;;;;;;;12.82;7.72;;;10.60;99.90;;;;;;6359356;22;20071;-94
2023/05/12 19:17:48;;;;;;;15.32;9.20;;;10.50;99.90;;;;;;6301300;22;20078;-96
2023/05/12 19:20:13;;;;;;;16.85;8.25;;;10.40;99.90;;;;;;6343939;22;20078;-95
2023/05/12 19:22:41;;;;;;;12.93;7.13;;;10.40;99.90;;;;;;6360957;22;19994;-96
2023/05/12 19:25:10;;;;;;;10.52;6.10;;;10.40;99.90;;;;;;6391468;22;20124;-95
2023/05/12 19:27:36;;;;;;;13.60;6.72;;;10.40;99.90;;;;;;6359209;22;20003;-95
2023/05/12 19:30:05;;;;;;;13.43;7.53;;;10.30;99.90;;;;;;6360323;22;20002;-96
2023/05/12 19:32:34;;;;;;;11.77;6.93;;;10.30;99.90;;;;;;6364416;22;20014;-96
2023/05/12 19:35:09;;;;;;;13.07;7.95;;;10.30;99.90;;;;;;6365772;22;20013;-96
2023/05/12 19:37:35;;;;;;;10.25;7.28;;;10.20;99.90;;;;;;6369434;22;19998;-96
2023/05/12 19:40:02;;;;;;;15.13;8.18;;;10.20;99.90;;;;;;6364690;22;20021;-96
2023/05/12 19:42:34;;;;;;;10.68;7.10;;;10.20;99.90;;;;;;6364031;22;20005;-95
2023/05/12 19:45:00;;;;;;;11.32;7.28;;;10.10;99.90;;;;;;6364944;22;20003;-96
2023/05/12 19:47:32;;;;;;;13.52;6.90;;;10.10;99.90;;;;;;6361382;22;20005;-95
2023/05/12 19:49:59;;;;;;;12.80;7.50;;;10.10;99.90;;;;;;6365637;22;20010;-95
2023/05/12 19:52:30;;;;;;;15.27;7.63;;;10.10;99.90;;;;;;6362322;22;20044;-96
2023/05/12 19:54:58;;;;;;;10.35;6.13;;;10.00;99.90;;;;;;6362259;22;20030;-95
2023/05/12 19:57:28;;;;;;;11.40;7.03;;;10.00;99.90;;;;;;6391458;22;20105;-95
2023/05/12 19:59:55;;;;;;;13.77;6.22;;;9.90;99.90;;;;;;6342695;22;20010;-94
2023/05/12 20:02:31;;;;;;;13.70;8.32;;;9.90;99.90;;;;;;6396167;22;20012;-95
2023/05/12 20:05:02;;;;;;;12.75;6.88;;;9.90;99.90;;;;;;6395988;22;20035;-95
2023/05/12 20:07:32;;;;;;;9.30;5.40;;;9.90;99.90;;;;;;6398963;22;20180;-96
2023/05/12 20:10:01;;;;;;;11.63;5.43;;;9.90;99.90;;;;;;6372141;22;19990;-96
2023/05/12 20:13:02;;;;;;;9.35;5.03;;;9.90;99.90;;;;;;6334566;22;20011;31
2023/05/12 20:15:33;;;;;;;6.18;3.92;;;9.80;99.90;;;;;;6330460;22;20009;-95
2023/05/12 20:18:00;;;;;;;9.55;5.53;;;9.80;99.90;;;;;;6301076;22;20004;-96
2023/05/12 20:20:26;;;;;;;8.82;5.28;;;9.80;99.90;;;;;;6301734;22;20389;-95
2023/05/12 20:22:52;;;;;;;9.45;5.50;;;9.80;99.90;;;;;;6300983;22;20053;-95
2023/05/12 20:25:20;;;;;;;9.05;5.53;;;9.70;99.90;;;;;;6303097;22;20010;-96
2023/05/12 20:27:47;;;;;;;11.30;6.07;;;9.70;99.90;;;;;;6306777;22;19991;-95
2023/05/12 20:30:16;;;;;;;8.90;5.65;;;9.70;99.90;;;;;;6307195;22;20014;-95
2023/05/12 20:32:47;;;;;;;13.17;5.03;;;9.70;99.90;;;;;;6306257;22;19995;-95
2023/05/12 20:35:15;;;;;;;10.68;5.22;;;9.70;99.90;;;;;;6281829;22;20221;-94
2023/05/12 20:37:54;;;;;;;9.30;4.78;;;9.70;99.90;;;;;;6308329;22;20050;-95
2023/05/12 20:40:22;;;;;;;8.90;4.43;;;9.60;99.90;;;;;;6298891;22;20011;-94
2023/05/12 20:42:48;;;;;;;10.68;5.55;;;9.70;99.90;;;;;;6300179;22;19995;-94
2023/05/12 20:45:16;;;;;;;9.35;4.85;;;9.70;99.90;;;;;;6301358;22;20007;-94
2023/05/12 20:47:49;;;;;;;11.05;6.15;;;9.70;99.90;;;;;;6299243;22;20055;-95
2023/05/12 20:50:15;;;;;;;10.65;6.05;;;9.70;99.90;;;;;;6303136;22;20011;-93
2023/05/12 20:52:48;;;;;;;11.18;5.90;;;9.70;99.90;;;;;;6301165;22;20093;-96
2023/05/12 20:55:14;;;;;;;9.77;5.43;;;9.70;99.90;;;;;;6280575;22;20037;-96
2023/05/12 20:57:46;;;;;;;12.10;5.97;;;9.70;99.90;;;;;;6327538;22;20011;-96
2023/05/12 21:00:13;;;;;;;8.68;5.55;;;9.70;99.90;;;;;;6304614;22;20025;-94
2023/05/12 21:02:43;;;;;;;11.15;5.80;;;9.70;99.90;;;;;;6327281;22;20018;-96
2023/05/12 21:05:09;;;;;;;;;;;9.70;99.90;;;;;;6396186;22;19987;-94
2023/05/12 21:07:35;;;;;;;13.93;6.40;;;9.70;99.90;;;;;;6368887;22;19928;-94
2023/05/12 21:10:06;;;;;;;13.43;6.72;;;9.60;99.90;;;;;;6362662;22;20002;-96
2023/05/12 21:12:33;;;;;;;11.00;5.78;;;9.60;99.90;;;;;;6361401;22;20006;-94
2023/05/12 21:14:58;;;;;;;9.40;6.05;;;9.60;99.90;;;;;;6359639;22;20021;-95
2023/05/12 21:17:29;;;;;;;9.70;5.47;;;9.60;99.90;;;;;;6392384;22;19994;-95
2023/05/12 21:20:00;;;;;;;8.30;4.90;;;9.60;99.90;;;;;;6370036;22;20013;-95
2023/05/12 21:22:31;;;;;;;8.10;4.22;;;9.60;99.90;;;;;;6365774;22;19994;-95
2023/05/12 21:24:57;;;;;;;5.47;4.15;;;9.60;99.90;;;;;;6366665;22;19994;-95
2023/05/12 21:27:24;;;;;;;7.15;4.13;;;9.50;99.90;;;;;;6367160;22;20052;-95
2023/05/12 21:29:58;;;;;;;10.63;4.63;;;9.50;99.90;;;;;;6369508;22;20001;-95
2023/05/12 21:32:51;;;;;;;8.68;4.95;;;9.40;99.90;;;;;;6370444;22;20421;-95
2023/05/12 21:35:18;;;;;;;8.10;4.38;;;9.40;99.90;;;;;;6392559;22;20006;-95
2023/05/12 21:37:48;;;;;;;5.40;4.47;;;9.40;99.90;;;;;;6393961;22;19998;-94
2023/05/12 21:40:20;;;;;;;9.95;4.25;;;9.40;99.90;;;;;;6368651;22;20033;-95
2023/05/12 21:43:16;;;;;;;9.30;4.53;;;9.40;99.90;;;;;;6392425;22;19999;-95
2023/05/12 21:46:13;;;;;;;8.05;5.20;;;9.30;99.90;;;;;;6369253;22;19990;-94
2023/05/12 21:48:53;;;;;;;12.30;6.35;;;9.20;99.90;;;;;;6345052;22;20047;-94
2023/05/12 21:51:33;;;;;;;9.75;5.00;;;9.20;99.90;;;;;;6381237;22;20006;-95
2023/05/12 21:55:19;;;;;;;10.55;4.90;;;9.20;99.90;;;;;;6373247;22;20010;-95
2023/05/12 21:58:16;;;;;;;8.80;5.57;;;9.20;99.90;;;;;;6397988;22;20014;-94
2023/05/12 22:01:06;;;;;;;8.75;5.00;;;9.20;99.90;;;;;;6393794;22;20117;-95
2023/05/12 22:04:20;;;;;;;7.35;4.72;;;9.20;99.90;;;;;;6367411;22;20006;-95
2023/05/12 22:07:06;;;;;;;8.63;5.30;;;9.20;99.90;;;;;;6349769;22;20006;-94
2023/05/12 22:09:39;;;;;;;9.35;5.22;;;9.20;99.90;;;;;;6368379;22;19983;-95
2023/05/12 22:18:45;;;;;;;7.00;4.88;;;9.30;99.90;;;;;;6395650;22;20036;-96
2023/05/12 22:21:19;;;;;;;11.13;5.67;;;9.30;99.90;;;;;;6371700;22;20018;-95
2023/05/12 22:23:57;;;;;;;9.20;4.93;;;9.30;99.90;;;;;;6344239;22;19986;-95
2023/05/12 22:26:35;;;;;;;10.52;5.95;;;9.20;99.90;;;;;;6371892;22;20012;-96
2023/05/12 22:29:25;;;;;;;8.70;5.25;;;9.20;99.90;;;;;;6369083;22;20002;-95
2023/05/12 22:31:57;;;;;;;9.18;4.53;;;9.20;99.90;;;;;;6356764;22;20006;-96
2023/05/12 22:34:48;;;;;;;8.23;4.50;;;9.20;99.90;;;;;;6368367;22;20003;-96
2023/05/12 22:37:25;;;;;;;8.07;5.32;;;9.10;99.90;;;;;;6370892;22;20003;-96
2023/05/12 22:40:16;;;;;;;9.35;5.10;;;9.10;99.90;;;;;;6366591;22;20002;-96
2023/05/12 22:42:47;;;;;;;9.60;5.45;;;9.10;99.90;;;;;;6394000;22;20030;-96
2023/05/12 22:45:18;;;;;;;10.43;5.75;;;9.10;99.90;;;;;;6343346;22;20025;-95
2023/05/12 22:47:46;;;;;;;7.90;5.65;;;9.10;99.90;;;;;;6394958;22;19998;-96
2023/05/12 22:50:15;;;;;;;7.93;5.65;;;9.00;99.90;;;;;;6341726;22;19998;-96
2023/05/12 22:52:43;;;;;;;9.98;6.93;;;9.00;99.90;;;;;;6371109;22;20002;-96
2023/05/12 22:55:16;;;;;;;9.07;6.28;;;9.00;99.90;;;;;;6369463;22;20006;-96
2023/05/12 22:58:12;;;;;;;13.32;7.05;;;9.00;99.90;;;;;;6370556;22;19998;-95
2023/05/12 23:00:59;;;;;;;9.80;5.82;;;9.00;99.90;;;;;;6388711;22;19994;-96
2023/05/12 23:03:56;;;;;;;11.20;6.00;;;8.90;99.90;;;;;;6396401;22;20004;-96
2023/05/12 23:06:44;;;;;;;8.43;5.75;;;8.90;99.90;;;;;;6372293;22;20045;-94
2023/05/12 23:09:13;;;;;;;11.43;6.45;;;9.00;99.90;;;;;;6367525;22;20006;-95
2023/05/12 23:11:41;;;;;;;15.10;7.37;;;8.90;99.90;;;;;;6397617;22;19993;-96
2023/05/12 23:14:10;;;;;;;9.35;6.13;;;8.90;99.90;;;;;;6370091;22;20252;-94
2023/05/12 23:19:41;;;;;;;10.73;6.05;;;8.90;99.90;;;;;;6386074;22;20002;-95
2023/05/12 23:22:07;;;;;;;12.70;6.57;;;8.90;99.90;;;;;;6369982;22;20021;-95
2023/05/12 23:24:34;;;;;;;11.65;6.22;;;8.90;99.90;;;;;;6400093;22;20007;-95
2023/05/12 23:29:44;;;;;;;11.57;6.75;;;8.80;99.90;;;;;;6300577;22;20008;-95
2023/05/12 23:32:13;;;;;;;10.45;6.70;;;8.80;99.90;;;;;;6277194;22;20008;-95
2023/05/12 23:34:42;;;;;;;10.75;6.25;;;8.80;99.90;;;;;;6277107;22;20130;-94
2023/05/12 23:37:09;;;;;;;12.35;5.97;;;8.80;99.90;;;;;;6276129;22;19995;-94
2023/05/12 23:39:35;;;;;;;10.57;7.05;;;8.90;99.90;;;;;;6274262;22;20039;-95
2023/05/12 23:42:02;;;;;;;10.10;7.10;;;8.80;99.90;;;;;;6278181;22;19996;-95
2023/05/12 23:44:28;;;;;;;12.35;7.25;;;8.80;99.90;;;;;;6277706;22;19995;-95
2023/05/12 23:46:54;;;;;;;13.18;7.38;;;8.80;99.90;;;;;;6277073;22;20011;-95
2023/05/12 23:49:20;;;;;;;11.57;7.28;;;8.80;99.90;;;;;;6274788;22;20031;-94
2023/05/12 23:51:46;;;;;;;12.18;6.85;;;8.80;99.90;;;;;;6249506;22;20039;-94
2023/05/12 23:54:15;;;;;;;13.05;7.00;;;8.80;99.90;;;;;;6302326;22;20000;-94
2023/05/12 23:56:41;;;;;;;11.45;7.68;;;8.80;99.90;;;;;;6275144;22;20027;-94
2023/05/12 23:59:08;;;;;;;18.13;7.15;;;8.80;99.90;;;;;;6275186;22;20015;-95
